Flight Track Log - Related Links

Times and Time Zones

All times are in EDT time to prevent confusion due to time zone crossing. See the N612CT flight status page for this flight to view local times or setup timezone preferences in your user account.


Time Position Orientation Groundspeed Altitude Reporting Facility
EDT Latitude Longitude Course Direction KTS MPH feet Rate Location/Type
Thu 01:54:00 PM 30.1794 -84.2131 130° Southeast  Level Estimated
Thu 01:55:00 PM 30.1360 -84.1856 128° Southeast  Level Estimated
Thu 01:56:00 PM 30.1408 -84.1285 84° East  Level FlightAware Approximate
Thu 01:57:00 PM 30.1456 -84.0715 84° East  Level FlightAware Approximate
Thu 01:58:00 PM 30.1503 -84.0145 84° East  Level FlightAware Approximate
Thu 01:59:00 PM 30.1061 -83.9886 133° Southeast  Level Estimated
Thu 02:00:00 PM 30.0942 -83.9331 104° East  Level FlightAware Approximate
Thu 02:00:46 PM 30.1683 -83.9331 113° Southeast 185 213 9,100  Level Jacksonville Center
Thu 02:01:00 PM 30.0823 -83.8775 104° East  Level FlightAware Approximate
Thu 02:01:46 PM 30.1561 -83.8775 104° East 205 236 9,100  Level Jacksonville Center
Thu 02:02:00 PM 30.0704 -83.8219 104° East  Level FlightAware Approximate
Thu 02:02:46 PM 30.1442 -83.8197 103° East 206 237 9,100  Level Jacksonville Center
Thu 02:03:00 PM 30.0256 -83.7975 132° Southeast  Level Estimated
Thu 02:03:46 PM 30.1194 -83.7714 121° Southeast 187 215 9,100  Level Jacksonville Center
Thu 02:04:00 PM 30.0063 -83.7448 113° Southeast  Level FlightAware Approximate
Thu 02:04:46 PM 30.0864 -83.7303 133° Southeast 177 204 9,100  Level Jacksonville Center
Thu 02:05:00 PM 29.9871 -83.6920 113° Southeast  Level FlightAware Approximate
Thu 02:05:46 PM 30.0553 -83.6869 130° Southeast 171 197 9,100  Level Jacksonville Center
Thu 02:06:46 PM 30.0242 -83.6411 128° Southeast 171 197 9,100  Level Jacksonville Center
Thu 02:07:46 PM 29.9931 -83.5975 129° Southeast 171 197 9,100  Level Jacksonville Center
Thu 02:08:46 PM 29.9642 -83.5567 129° Southeast 171 197 9,100  Level Jacksonville Center
Thu 02:09:46 PM 29.9308 -83.5108 130° Southeast 171 197 9,100  Level Jacksonville Center
Thu 02:10:47 PM 29.9019 -83.4700 129° Southeast 171 197 9,100  Level Jacksonville Center
Thu 02:11:46 PM 29.8708 -83.4267 130° Southeast 171 197 9,100  Level Jacksonville Center
Thu 02:12:46 PM 29.8375 -83.3811 130° Southeast 171 197 9,100  Level Jacksonville Center
Thu 02:13:46 PM 29.8064 -83.3378 130° Southeast 171 197 9,100  Level Jacksonville Center
Thu 02:14:46 PM 29.7753 -83.2969 131° Southeast 171 197 9,100  Level Jacksonville Center
Thu 02:15:46 PM 29.7461 -83.2539 128° Southeast 171 197 9,100  Level Jacksonville Center
Thu 02:16:46 PM 29.7169 -83.2106 128° Southeast 171 197 9,100  Level Jacksonville Center
Thu 02:17:46 PM 29.6836 -83.1675 132° Southeast 171 197 9,100  Level Jacksonville Center
Thu 02:17:51 PM 29.6794 -83.1650 152° Southeast 169 194 9,100  Level Jacksonville Center
Thu 02:18:27 PM 29.6608 -83.1389 129° Southeast 168 193 9,100  Level Jacksonville Center
Thu 02:18:46 PM 29.6567 -83.1267 111° Southeast 171 197 9,100  Level Jacksonville Center
Thu 02:19:29 PM 29.6297 -83.0956 135° Southeast 176 203 9,100  Level Jacksonville Center
Thu 02:19:46 PM 29.6275 -83.0861 105° East 171 197 9,100  Level Jacksonville Center
Thu 02:20:30 PM 29.5961 -83.0503 135° Southeast 174 200 9,100  Level Jacksonville Center
Thu 02:20:46 PM 29.5919 -83.0431 124° Southeast 166 191 9,100  Level Jacksonville Center
Thu 02:21:24 PM 29.5567 -83.0264 158° South 175 201 9,100  Level Jacksonville Center
Thu 02:21:46 PM 29.5503 -83.0192 135° Southeast 166 191 9,100  Level Jacksonville Center
Thu 02:22:32 PM 29.5150 -82.9975 152° Southeast 171 197 9,100  Level Jacksonville Center
Thu 02:22:46 PM 29.5086 -82.9903 135° Southeast 173 199 9,100  Level Jacksonville Center
Thu 02:23:33 PM 29.4731 -82.9714 155° Southeast 171 197 9,100  Level Jacksonville Center
Thu 02:23:46 PM 29.4628 -82.9594 135° Southeast 173 199 9,100  Level Jacksonville Center
Thu 02:24:34 PM 29.4272 -82.9378 152° Southeast 171 197 9,100  Level Jacksonville Center
Thu 02:24:46 PM 29.4189 -82.9331 154° Southeast 178 205 9,100  Level Jacksonville Center
Thu 02:25:35 PM 29.3856 -82.9117 151° Southeast 173 199 9,100  Level Jacksonville Center
Thu 02:25:46 PM 29.3772 -82.9044 143° Southeast 178 205 9,100  Level Jacksonville Center
Thu 02:26:42 PM 29.3394 -82.8831 154° Southeast 173 199 9,100  Level Jacksonville Center
Thu 02:26:46 PM 29.3353 -82.8783 135° Southeast 178 205 9,100  Level Jacksonville Center
Thu 02:27:46 PM 29.2958 -82.8522 150° Southeast 178 205 9,100  Level Jacksonville Center
Thu 02:28:44 PM 29.2539 -82.8236 149° Southeast 172 198 9,100  Level Jacksonville Center
Thu 02:29:39 PM 29.2164 -82.7997 151° Southeast 172 198 9,100  Level Jacksonville Center
Thu 02:30:46 PM 29.1706 -82.7714 152° Southeast 172 198 9,100  Level Jacksonville Center
Thu 02:31:47 PM 29.1308 -82.7475 152° Southeast 171 197 9,100  Level Jacksonville Center
Thu 02:32:48 PM 29.0869 -82.7192 151° Southeast 169 194 9,100  Level Jacksonville Center
Thu 02:33:43 PM 29.0472 -82.6931 150° Southeast 173 199 9,100  Level Jacksonville Center
Thu 02:34:44 PM 29.0053 -82.6647 149° Southeast 173 199 9,100  Level Jacksonville Center
Thu 02:35:45 PM 28.9636 -82.6386 151° Southeast 170 196 9,100  Level Jacksonville Center
Thu 02:36:46 PM 28.9217 -82.6128 152° Southeast 170 196 9,100  Level Jacksonville Center
Thu 02:37:53 PM 28.8717 -82.5797 150° Southeast 173 199 9,100  Level Jacksonville Center
Thu 02:38:49 PM 28.8339 -82.5561 151° Southeast 173 199 9,100  Level Jacksonville Center
Thu 02:40:21 PM 28.7667 -82.5167 153° Southeast 173 199 9,100  Level Tampa TRACON
Thu 02:41:21 PM 28.7333 -82.4833 139° Southeast 172 198 9,100  Level Tampa TRACON
Thu 02:42:21 PM 28.6833 -82.4667 164° South 174 200 9,100  Level Tampa TRACON
Thu 02:43:21 PM 28.6500 -82.4333 139° Southeast 168 193 9,100  Level Tampa TRACON
Thu 02:44:21 PM 28.6000 -82.4000 150° Southeast 168 193 9,100  Level Tampa TRACON
Thu 02:45:27 PM 28.5667 -82.3833 156° South 165 190 9,100  Level Tampa TRACON
Thu 02:46:33 PM 28.5167 -82.3500 150° Southeast 165 190 9,100  Level Tampa TRACON
Thu 02:47:27 PM 28.4833 -82.3333 156° South 171 197 9,100  Level Tampa TRACON
Thu 02:48:21 PM 28.4333 -82.3000 150° Southeast 176 203 9,100  Level Tampa TRACON
Thu 02:49:21 PM 28.4000 -82.2833 156° South 175 201 9,100  Level Tampa TRACON
Thu 02:50:27 PM 28.3500 -82.2500 150° Southeast 176 203 9,100  Level Tampa TRACON
Thu 02:51:33 PM 28.3000 -82.2333 164° South 176 203 9,100  Level Tampa TRACON
Thu 02:52:21 PM 28.2667 -82.2167 156° South 173 199 9,100  Level Tampa TRACON
Thu 02:53:21 PM 28.2167 -82.2000 164° South 170 196 9,100  Level Tampa TRACON
Thu 02:54:21 PM 28.1833 -82.1667 139° Southeast 177 204 9,100 -298 Level Tampa TRACON
Thu 02:55:22 PM 28.1333 -82.1333 150° Southeast 177 204 8,500 -645 Descending Tampa TRACON
Thu 02:56:22 PM 28.1000 -82.1000 139° Southeast 188 216 7,800 -706 Descending Tampa TRACON
Thu 02:57:21 PM 28.0500 -82.0667 150° Southeast 185 213 7,100 -400 Descending Tampa TRACON
Thu 02:58:22 PM 28.0167 -82.0333 139° Southeast 176 203 7,000  Descending Tampa TRACON
Thu 02:59:56 PM 27.9542 -81.9972 153° Southeast 153 176 7,100 39 Climbing Miami Center
Thu 03:00:56 PM 27.9131 -81.9767 156° South 153 176 7,100  Level Miami Center
Thu 03:01:56 PM 27.8714 -81.9769 180° South 153 176 7,100  Level Miami Center
Thu 03:02:55 PM 27.8358 -81.9778 181° South 153 176 7,100 -50 Level Miami Center
Thu 03:03:56 PM 27.7881 -81.9778 180° South 158 182 7,000 -50 Descending Miami Center
Thu 03:04:56 PM 27.7422 -81.9758 178° South 163 188 7,000  Level Miami Center
Thu 03:05:56 PM 27.6942 -81.9761 180° South 163 188 7,000  Level Miami Center
Thu 03:06:56 PM 27.6503 -81.9789 183° South 158 182 7,000  Level Miami Center
Thu 03:07:56 PM 27.6064 -81.9792 180° South 158 182 7,000  Level Miami Center
Thu 03:08:56 PM 27.5689 -81.9797 181° South 158 182 7,000  Level Miami Center
Thu 03:09:56 PM 27.5228 -81.9825 183° South 163 188 7,000  Level Miami Center
Thu 03:10:56 PM 27.4769 -81.9828 180° South 163 188 7,000  Level Miami Center
Thu 03:11:56 PM 27.4331 -81.9856 183° South 163 188 7,000  Level Miami Center
Thu 03:12:56 PM 27.3911 -81.9858 180° South 158 182 7,000  Level Miami Center
Thu 03:13:56 PM 27.3494 -81.9864 181° South 158 182 7,000  Level Miami Center
Thu 03:14:56 PM 27.3056 -81.9869 181° South 158 182 7,000  Level Miami Center
Thu 03:15:56 PM 27.2639 -81.9872 180° South 158 182 7,000  Level Miami Center
Thu 03:16:56 PM 27.2200 -81.9878 181° South 158 182 7,000  Level Miami Center
Thu 03:17:56 PM 27.1761 -81.9903 183° South 158 182 7,000  Level Miami Center
Thu 03:18:56 PM 27.1344 -81.9886 178° South 158 182 7,000  Level Miami Center
Thu 03:20:07 PM 27.0906 -81.9914 183° South 158 182 7,000  Level Miami Center
Thu 03:21:08 PM 27.0361 -81.9911 180° South 158 182 7,000  Level Miami Center
Thu 03:22:08 PM 26.9925 -81.9892 178° South 158 182 7,000  Level Miami Center
Thu 03:23:08 PM 26.9464 -81.9919 183° South 158 182 7,000  Level Miami Center
Thu 03:24:08 PM 26.9028 -81.9875 175° South 158 182 7,000  Level Miami Center
Thu 03:25:08 PM 26.8614 -81.9767 167° South 158 182 7,000  Level Miami Center
Thu 03:26:08 PM 26.8181 -81.9653 167° South 158 182 7,000  Level Miami Center
Thu 03:27:08 PM 26.7744 -81.9517 164° South 158 182 7,000  Level Miami Center
Thu 03:28:08 PM 26.7333 -81.9406 166° South 158 182 7,000  Level Miami Center
Thu 03:29:08 PM 26.6856 -81.9269 166° South 163 188 7,000  Level Miami Center
Thu 03:31:00 PM 26.6029 -81.8966 162° South  Level FlightAware Approximate
Thu 03:38:00 PM 26.2873 -81.8050 165° South  Level FlightAware Approximate
Thu 03:39:00 PM 26.2424 -81.7912 165° South  Level FlightAware Approximate
Thu 03:40:00 PM 26.1973 -81.7785 167° South  Level FlightAware Approximate
Thu 03:41:00 PM 26.1518 -81.7671 167° South  Level FlightAware Approximate

Login

Don't have an account? Register now (free) for customized features, flight alerts, and more!